sensor_id;sensor_type;location;lat;lon;timestamp;P1;durP1;ratioP1;P2;durP2;ratioP2
1679;SDS011;838;51.794;12.258;2023-05-10T00:01:43;5.67;;;3.73;;
1679;SDS011;838;51.794;12.258;2023-05-10T00:04:09;6.73;;;4.20;;
1679;SDS011;838;51.794;12.258;2023-05-10T00:06:38;4.57;;;3.50;;
1679;SDS011;838;51.794;12.258;2023-05-10T00:09:04;6.10;;;3.87;;
1679;SDS011;838;51.794;12.258;2023-05-10T00:11:33;5.20;;;4.20;;
1679;SDS011;838;51.794;12.258;2023-05-10T00:13:59;8.63;;;3.97;;
1679;SDS011;838;51.794;12.258;2023-05-10T00:16:27;5.60;;;4.13;;
1679;SDS011;838;51.794;12.258;2023-05-10T00:18:53;5.13;;;4.00;;
1679;SDS011;838;51.794;12.258;2023-05-10T00:21:22;7.27;;;4.50;;
1679;SDS011;838;51.794;12.258;2023-05-10T00:23:50;5.20;;;4.17;;
1679;SDS011;838;51.794;12.258;2023-05-10T00:26:17;5.10;;;4.53;;
1679;SDS011;838;51.794;12.258;2023-05-10T00:28:45;5.00;;;4.03;;
1679;SDS011;838;51.794;12.258;2023-05-10T00:31:20;5.33;;;4.03;;
1679;SDS011;838;51.794;12.258;2023-05-10T00:33:46;7.80;;;4.57;;
1679;SDS011;838;51.794;12.258;2023-05-10T00:36:12;5.10;;;4.23;;
1679;SDS011;838;51.794;12.258;2023-05-10T00:38:43;4.50;;;3.93;;
1679;SDS011;838;51.794;12.258;2023-05-10T00:41:09;5.53;;;4.10;;
1679;SDS011;838;51.794;12.258;2023-05-10T00:43:38;4.47;;;3.73;;
1679;SDS011;838;51.794;12.258;2023-05-10T00:46:04;5.57;;;3.80;;
1679;SDS011;838;51.794;12.258;2023-05-10T00:48:30;5.70;;;4.37;;
1679;SDS011;838;51.794;12.258;2023-05-10T00:51:00;7.60;;;4.23;;
1679;SDS011;838;51.794;12.258;2023-05-10T00:53:27;5.27;;;4.37;;
1679;SDS011;838;51.794;12.258;2023-05-10T00:55:53;5.63;;;3.90;;
1679;SDS011;838;51.794;12.258;2023-05-10T00:58:19;4.40;;;4.00;;
1679;SDS011;838;51.794;12.258;2023-05-10T01:00:48;6.40;;;4.17;;
1679;SDS011;838;51.794;12.258;2023-05-10T01:03:15;4.63;;;3.90;;
1679;SDS011;838;51.794;12.258;2023-05-10T01:05:42;4.63;;;4.20;;
1679;SDS011;838;51.794;12.258;2023-05-10T01:08:07;5.80;;;4.90;;
1679;SDS011;838;51.794;12.258;2023-05-10T01:10:33;6.00;;;4.33;;
1679;SDS011;838;51.794;12.258;2023-05-10T01:13:00;5.87;;;4.17;;
1679;SDS011;838;51.794;12.258;2023-05-10T01:15:26;3.90;;;3.40;;
1679;SDS011;838;51.794;12.258;2023-05-10T01:17:52;6.90;;;5.40;;
1679;SDS011;838;51.794;12.258;2023-05-10T01:20:18;5.27;;;4.23;;
1679;SDS011;838;51.794;12.258;2023-05-10T01:36:51;9.00;;;4.33;;
1679;SDS011;838;51.794;12.258;2023-05-10T01:39:36;4.97;;;4.27;;
1679;SDS011;838;51.794;12.258;2023-05-10T01:42:21;5.40;;;4.30;;
1679;SDS011;838;51.794;12.258;2023-05-10T01:45:02;7.27;;;4.80;;
1679;SDS011;838;51.794;12.258;2023-05-10T01:47:38;5.60;;;4.53;;
1679;SDS011;838;51.794;12.258;2023-05-10T01:50:10;7.50;;;4.30;;
1679;SDS011;838;51.794;12.258;2023-05-10T01:52:44;5.57;;;4.20;;
1679;SDS011;838;51.794;12.258;2023-05-10T01:55:16;5.70;;;4.97;;
1679;SDS011;838;51.794;12.258;2023-05-10T01:57:46;7.83;;;4.60;;
1679;SDS011;838;51.794;12.258;2023-05-10T02:00:16;5.00;;;4.07;;
1679;SDS011;838;51.794;12.258;2023-05-10T02:02:47;5.60;;;4.17;;
1679;SDS011;838;51.794;12.258;2023-05-10T02:05:15;6.07;;;4.30;;
1679;SDS011;838;51.794;12.258;2023-05-10T02:07:42;6.10;;;4.80;;
1679;SDS011;838;51.794;12.258;2023-05-10T02:10:09;7.47;;;5.13;;
1679;SDS011;838;51.794;12.258;2023-05-10T02:12:37;5.87;;;4.90;;
1679;SDS011;838;51.794;12.258;2023-05-10T02:15:11;6.30;;;4.30;;
1679;SDS011;838;51.794;12.258;2023-05-10T02:17:40;4.90;;;4.33;;
1679;SDS011;838;51.794;12.258;2023-05-10T02:20:08;5.10;;;4.20;;
1679;SDS011;838;51.794;12.258;2023-05-10T02:22:36;8.00;;;4.80;;
1679;SDS011;838;51.794;12.258;2023-05-10T02:25:05;7.50;;;4.90;;
1679;SDS011;838;51.794;12.258;2023-05-10T02:27:36;9.50;;;5.80;;
1679;SDS011;838;51.794;12.258;2023-05-10T02:30:03;5.23;;;4.43;;
1679;SDS011;838;51.794;12.258;2023-05-10T02:32:31;5.83;;;4.57;;
1679;SDS011;838;51.794;12.258;2023-05-10T02:34:58;5.73;;;4.63;;
1679;SDS011;838;51.794;12.258;2023-05-10T02:37:26;6.13;;;4.87;;
1679;SDS011;838;51.794;12.258;2023-05-10T02:39:53;6.17;;;4.80;;
1679;SDS011;838;51.794;12.258;2023-05-10T02:42:25;5.97;;;4.77;;
1679;SDS011;838;51.794;12.258;2023-05-10T02:44:55;8.17;;;5.10;;
1679;SDS011;838;51.794;12.258;2023-05-10T02:47:25;6.70;;;4.60;;
1679;SDS011;838;51.794;12.258;2023-05-10T02:49:52;5.97;;;4.77;;
1679;SDS011;838;51.794;12.258;2023-05-10T02:52:23;8.20;;;5.63;;
1679;SDS011;838;51.794;12.258;2023-05-10T02:54:54;5.27;;;4.60;;
1679;SDS011;838;51.794;12.258;2023-05-10T02:57:22;6.80;;;4.40;;
1679;SDS011;838;51.794;12.258;2023-05-10T02:59:52;6.13;;;4.73;;
1679;SDS011;838;51.794;12.258;2023-05-10T03:02:18;6.67;;;4.77;;
1679;SDS011;838;51.794;12.258;2023-05-10T03:04:45;5.20;;;4.60;;
1679;SDS011;838;51.794;12.258;2023-05-10T03:07:10;7.00;;;5.00;;
1679;SDS011;838;51.794;12.258;2023-05-10T03:09:36;6.27;;;5.27;;
1679;SDS011;838;51.794;12.258;2023-05-10T03:12:14;7.53;;;4.57;;
1679;SDS011;838;51.794;12.258;2023-05-10T03:20:12;5.90;;;5.27;;
1679;SDS011;838;51.794;12.258;2023-05-10T03:22:47;6.60;;;5.90;;
1679;SDS011;838;51.794;12.258;2023-05-10T03:25:18;6.00;;;5.07;;
1679;SDS011;838;51.794;12.258;2023-05-10T03:27:47;6.40;;;5.00;;
1679;SDS011;838;51.794;12.258;2023-05-10T03:30:14;6.43;;;5.30;;
1679;SDS011;838;51.794;12.258;2023-05-10T03:32:40;9.00;;;5.20;;
1679;SDS011;838;51.794;12.258;2023-05-10T03:35:09;7.67;;;4.90;;
1679;SDS011;838;51.794;12.258;2023-05-10T03:37:36;6.23;;;5.40;;
1679;SDS011;838;51.794;12.258;2023-05-10T03:40:02;7.60;;;5.63;;
1679;SDS011;838;51.794;12.258;2023-05-10T03:42:28;7.03;;;5.57;;
1679;SDS011;838;51.794;12.258;2023-05-10T03:44:54;6.70;;;4.90;;
1679;SDS011;838;51.794;12.258;2023-05-10T03:47:20;7.10;;;4.80;;
1679;SDS011;838;51.794;12.258;2023-05-10T03:49:46;5.33;;;4.47;;
1679;SDS011;838;51.794;12.258;2023-05-10T03:52:11;5.60;;;5.00;;
1679;SDS011;838;51.794;12.258;2023-05-10T03:54:37;5.63;;;5.00;;
1679;SDS011;838;51.794;12.258;2023-05-10T03:57:03;6.63;;;5.67;;
1679;SDS011;838;51.794;12.258;2023-05-10T03:59:29;5.90;;;4.70;;
1679;SDS011;838;51.794;12.258;2023-05-10T04:01:55;6.83;;;4.60;;
1679;SDS011;838;51.794;12.258;2023-05-10T04:04:21;5.90;;;4.47;;
1679;SDS011;838;51.794;12.258;2023-05-10T04:06:48;7.13;;;4.57;;
1679;SDS011;838;51.794;12.258;2023-05-10T04:09:13;7.83;;;6.10;;
1679;SDS011;838;51.794;12.258;2023-05-10T04:11:40;6.80;;;4.83;;
1679;SDS011;838;51.794;12.258;2023-05-10T04:14:05;5.97;;;4.50;;
1679;SDS011;838;51.794;12.258;2023-05-10T04:16:31;6.13;;;5.07;;
1679;SDS011;838;51.794;12.258;2023-05-10T04:18:57;7.20;;;5.13;;
1679;SDS011;838;51.794;12.258;2023-05-10T04:21:22;6.80;;;4.80;;
1679;SDS011;838;51.794;12.258;2023-05-10T04:23:48;5.90;;;4.53;;
1679;SDS011;838;51.794;12.258;2023-05-10T04:26:14;7.73;;;4.80;;
1679;SDS011;838;51.794;12.258;2023-05-10T04:28:40;7.33;;;4.70;;
1679;SDS011;838;51.794;12.258;2023-05-10T04:31:07;6.10;;;4.83;;
1679;SDS011;838;51.794;12.258;2023-05-10T04:33:34;5.57;;;4.70;;
1679;SDS011;838;51.794;12.258;2023-05-10T04:36:00;5.90;;;5.30;;
1679;SDS011;838;51.794;12.258;2023-05-10T04:38:27;7.70;;;4.87;;
1679;SDS011;838;51.794;12.258;2023-05-10T04:40:53;5.90;;;4.33;;
1679;SDS011;838;51.794;12.258;2023-05-10T04:43:19;5.17;;;4.20;;
1679;SDS011;838;51.794;12.258;2023-05-10T04:45:45;5.70;;;4.40;;
1679;SDS011;838;51.794;12.258;2023-05-10T04:48:11;6.20;;;4.50;;
1679;SDS011;838;51.794;12.258;2023-05-10T04:50:37;7.07;;;4.80;;
1679;SDS011;838;51.794;12.258;2023-05-10T04:53:04;6.80;;;4.30;;
1679;SDS011;838;51.794;12.258;2023-05-10T04:55:30;6.13;;;4.20;;
1679;SDS011;838;51.794;12.258;2023-05-10T04:57:56;9.80;;;4.90;;
1679;SDS011;838;51.794;12.258;2023-05-10T05:00:22;4.83;;;4.00;;
1679;SDS011;838;51.794;12.258;2023-05-10T05:02:49;5.60;;;4.47;;
1679;SDS011;838;51.794;12.258;2023-05-10T05:05:15;5.47;;;4.17;;
1679;SDS011;838;51.794;12.258;2023-05-10T05:07:49;5.90;;;3.83;;
1679;SDS011;838;51.794;12.258;2023-05-10T05:10:24;5.13;;;3.73;;
1679;SDS011;838;51.794;12.258;2023-05-10T05:12:59;5.80;;;4.50;;
1679;SDS011;838;51.794;12.258;2023-05-10T05:15:26;5.80;;;4.10;;
1679;SDS011;838;51.794;12.258;2023-05-10T05:17:52;9.77;;;4.90;;
1679;SDS011;838;51.794;12.258;2023-05-10T05:20:18;5.90;;;3.93;;
1679;SDS011;838;51.794;12.258;2023-05-10T05:22:44;5.80;;;3.73;;
1679;SDS011;838;51.794;12.258;2023-05-10T05:25:10;6.20;;;4.00;;
1679;SDS011;838;51.794;12.258;2023-05-10T05:27:36;7.60;;;4.07;;
1679;SDS011;838;51.794;12.258;2023-05-10T05:30:02;5.20;;;3.80;;
1679;SDS011;838;51.794;12.258;2023-05-10T05:32:29;4.90;;;3.70;;
1679;SDS011;838;51.794;12.258;2023-05-10T05:34:55;4.83;;;3.60;;
1679;SDS011;838;51.794;12.258;2023-05-10T05:37:21;5.60;;;3.43;;
1679;SDS011;838;51.794;12.258;2023-05-10T05:39:47;6.47;;;3.97;;
1679;SDS011;838;51.794;12.258;2023-05-10T05:42:13;5.27;;;3.37;;
1679;SDS011;838;51.794;12.258;2023-05-10T05:44:41;3.77;;;2.90;;
1679;SDS011;838;51.794;12.258;2023-05-10T05:47:07;5.57;;;3.80;;
1679;SDS011;838;51.794;12.258;2023-05-10T05:49:33;4.33;;;3.43;;
1679;SDS011;838;51.794;12.258;2023-05-10T05:51:59;4.43;;;3.43;;
1679;SDS011;838;51.794;12.258;2023-05-10T05:54:29;4.90;;;3.20;;
1679;SDS011;838;51.794;12.258;2023-05-10T05:56:59;4.80;;;3.13;;
1679;SDS011;838;51.794;12.258;2023-05-10T05:59:25;4.63;;;2.97;;
1679;SDS011;838;51.794;12.258;2023-05-10T06:01:51;5.40;;;3.30;;
1679;SDS011;838;51.794;12.258;2023-05-10T06:04:18;4.53;;;3.00;;
1679;SDS011;838;51.794;12.258;2023-05-10T06:06:44;4.07;;;3.17;;
1679;SDS011;838;51.794;12.258;2023-05-10T06:09:10;4.63;;;3.30;;
1679;SDS011;838;51.794;12.258;2023-05-10T06:11:36;4.70;;;3.23;;
1679;SDS011;838;51.794;12.258;2023-05-10T06:14:02;3.90;;;2.93;;
1679;SDS011;838;51.794;12.258;2023-05-10T06:16:32;3.83;;;3.10;;
1679;SDS011;838;51.794;12.258;2023-05-10T06:18:58;4.47;;;3.13;;
1679;SDS011;838;51.794;12.258;2023-05-10T06:21:23;6.37;;;3.53;;
1679;SDS011;838;51.794;12.258;2023-05-10T06:23:49;5.80;;;3.03;;
1679;SDS011;838;51.794;12.258;2023-05-10T06:26:15;5.10;;;2.90;;
1679;SDS011;838;51.794;12.258;2023-05-10T06:28:41;5.70;;;4.30;;
1679;SDS011;838;51.794;12.258;2023-05-10T06:31:07;5.57;;;3.47;;
1679;SDS011;838;51.794;12.258;2023-05-10T06:33:33;4.00;;;3.10;;
1679;SDS011;838;51.794;12.258;2023-05-10T06:35:59;4.20;;;3.53;;
1679;SDS011;838;51.794;12.258;2023-05-10T06:38:25;3.80;;;2.87;;
1679;SDS011;838;51.794;12.258;2023-05-10T06:40:51;3.90;;;2.80;;
1679;SDS011;838;51.794;12.258;2023-05-10T06:43:17;5.07;;;3.20;;
1679;SDS011;838;51.794;12.258;2023-05-10T06:45:43;4.03;;;3.00;;
1679;SDS011;838;51.794;12.258;2023-05-10T06:48:12;4.87;;;3.50;;
1679;SDS011;838;51.794;12.258;2023-05-10T06:50:38;4.90;;;3.40;;
1679;SDS011;838;51.794;12.258;2023-05-10T06:53:03;6.87;;;3.80;;
1679;SDS011;838;51.794;12.258;2023-05-10T06:55:29;4.63;;;3.17;;
1679;SDS011;838;51.794;12.258;2023-05-10T06:57:55;6.07;;;3.90;;
1679;SDS011;838;51.794;12.258;2023-05-10T07:00:21;4.30;;;3.20;;
1679;SDS011;838;51.794;12.258;2023-05-10T07:02:46;4.73;;;4.00;;
1679;SDS011;838;51.794;12.258;2023-05-10T07:05:12;4.73;;;3.30;;
1679;SDS011;838;51.794;12.258;2023-05-10T07:07:39;4.30;;;3.40;;
1679;SDS011;838;51.794;12.258;2023-05-10T07:10:05;5.83;;;3.30;;
1679;SDS011;838;51.794;12.258;2023-05-10T07:12:32;7.17;;;3.43;;
1679;SDS011;838;51.794;12.258;2023-05-10T07:14:57;4.63;;;3.20;;
1679;SDS011;838;51.794;12.258;2023-05-10T07:17:23;7.00;;;3.40;;
1679;SDS011;838;51.794;12.258;2023-05-10T07:19:49;4.83;;;3.60;;
1679;SDS011;838;51.794;12.258;2023-05-10T07:22:15;4.97;;;3.30;;
1679;SDS011;838;51.794;12.258;2023-05-10T07:24:44;4.37;;;3.07;;
1679;SDS011;838;51.794;12.258;2023-05-10T07:27:10;5.40;;;3.33;;
1679;SDS011;838;51.794;12.258;2023-05-10T07:29:36;4.20;;;3.40;;
1679;SDS011;838;51.794;12.258;2023-05-10T07:32:02;4.70;;;3.57;;
1679;SDS011;838;51.794;12.258;2023-05-10T07:34:28;4.63;;;4.20;;
1679;SDS011;838;51.794;12.258;2023-05-10T07:36:55;6.40;;;3.20;;
1679;SDS011;838;51.794;12.258;2023-05-10T07:39:22;4.40;;;3.37;;
1679;SDS011;838;51.794;12.258;2023-05-10T07:41:48;5.60;;;3.30;;
1679;SDS011;838;51.794;12.258;2023-05-10T07:44:14;4.20;;;3.20;;
1679;SDS011;838;51.794;12.258;2023-05-10T07:46:43;4.93;;;3.47;;
1679;SDS011;838;51.794;12.258;2023-05-10T07:49:08;7.13;;;3.70;;
1679;SDS011;838;51.794;12.258;2023-05-10T07:51:34;6.37;;;3.93;;
1679;SDS011;838;51.794;12.258;2023-05-10T07:54:00;5.50;;;3.63;;
1679;SDS011;838;51.794;12.258;2023-05-10T07:56:28;5.00;;;3.90;;
1679;SDS011;838;51.794;12.258;2023-05-10T07:58:57;5.40;;;3.70;;
1679;SDS011;838;51.794;12.258;2023-05-10T08:01:24;6.43;;;3.57;;
1679;SDS011;838;51.794;12.258;2023-05-10T08:03:50;5.27;;;3.60;;
1679;SDS011;838;51.794;12.258;2023-05-10T08:06:17;6.53;;;4.03;;
1679;SDS011;838;51.794;12.258;2023-05-10T08:08:43;5.17;;;3.73;;
1679;SDS011;838;51.794;12.258;2023-05-10T08:11:14;5.53;;;3.80;;
1679;SDS011;838;51.794;12.258;2023-05-10T08:13:43;5.43;;;3.50;;
1679;SDS011;838;51.794;12.258;2023-05-10T08:16:10;7.93;;;4.07;;
1679;SDS011;838;51.794;12.258;2023-05-10T08:18:36;5.87;;;3.90;;
1679;SDS011;838;51.794;12.258;2023-05-10T08:21:02;5.57;;;3.73;;
1679;SDS011;838;51.794;12.258;2023-05-10T08:23:28;5.40;;;4.10;;
1679;SDS011;838;51.794;12.258;2023-05-10T08:25:54;5.33;;;3.63;;
1679;SDS011;838;51.794;12.258;2023-05-10T08:28:20;4.60;;;3.40;;
1679;SDS011;838;51.794;12.258;2023-05-10T08:30:46;4.87;;;3.57;;
1679;SDS011;838;51.794;12.258;2023-05-10T08:33:17;6.97;;;3.90;;
1679;SDS011;838;51.794;12.258;2023-05-10T08:35:44;4.20;;;2.90;;
1679;SDS011;838;51.794;12.258;2023-05-10T08:38:13;5.20;;;3.93;;
1679;SDS011;838;51.794;12.258;2023-05-10T08:40:42;5.80;;;3.63;;
1679;SDS011;838;51.794;12.258;2023-05-10T08:43:10;5.43;;;3.27;;
1679;SDS011;838;51.794;12.258;2023-05-10T08:45:43;5.17;;;3.30;;
1679;SDS011;838;51.794;12.258;2023-05-10T08:48:13;4.80;;;2.60;;
1679;SDS011;838;51.794;12.258;2023-05-10T08:50:42;3.90;;;2.87;;
1679;SDS011;838;51.794;12.258;2023-05-10T08:53:14;4.80;;;3.20;;
1679;SDS011;838;51.794;12.258;2023-05-10T08:55:41;5.67;;;3.80;;
1679;SDS011;838;51.794;12.258;2023-05-10T08:58:08;3.97;;;3.00;;
1679;SDS011;838;51.794;12.258;2023-05-10T09:00:34;4.67;;;3.37;;
1679;SDS011;838;51.794;12.258;2023-05-10T09:03:05;4.30;;;3.53;;
1679;SDS011;838;51.794;12.258;2023-05-10T09:05:34;4.00;;;3.53;;
1679;SDS011;838;51.794;12.258;2023-05-10T09:08:02;4.37;;;3.30;;
1679;SDS011;838;51.794;12.258;2023-05-10T09:10:27;4.13;;;3.47;;
1679;SDS011;838;51.794;12.258;2023-05-10T09:12:58;5.57;;;3.47;;
1679;SDS011;838;51.794;12.258;2023-05-10T09:15:24;6.20;;;3.20;;
1679;SDS011;838;51.794;12.258;2023-05-10T09:17:50;3.80;;;3.10;;
1679;SDS011;838;51.794;12.258;2023-05-10T09:20:16;4.80;;;2.70;;
1679;SDS011;838;51.794;12.258;2023-05-10T09:22:45;7.80;;;3.50;;
1679;SDS011;838;51.794;12.258;2023-05-10T09:25:14;11.03;;;3.43;;
1679;SDS011;838;51.794;12.258;2023-05-10T09:27:41;3.93;;;2.90;;
1679;SDS011;838;51.794;12.258;2023-05-10T09:30:10;3.97;;;3.13;;
1679;SDS011;838;51.794;12.258;2023-05-10T09:32:56;4.50;;;3.07;;
1679;SDS011;838;51.794;12.258;2023-05-10T09:35:25;5.53;;;3.33;;
1679;SDS011;838;51.794;12.258;2023-05-10T09:37:53;6.23;;;4.63;;
1679;SDS011;838;51.794;12.258;2023-05-10T09:40:25;7.17;;;3.37;;
1679;SDS011;838;51.794;12.258;2023-05-10T09:45:45;5.60;;;3.80;;
1679;SDS011;838;51.794;12.258;2023-05-10T09:48:14;6.90;;;3.63;;
1679;SDS011;838;51.794;12.258;2023-05-10T09:50:43;3.63;;;2.93;;
1679;SDS011;838;51.794;12.258;2023-05-10T09:53:09;4.60;;;3.20;;
1679;SDS011;838;51.794;12.258;2023-05-10T09:55:40;4.53;;;3.50;;
1679;SDS011;838;51.794;12.258;2023-05-10T09:58:18;4.03;;;3.50;;
1679;SDS011;838;51.794;12.258;2023-05-10T10:00:45;4.23;;;3.33;;
1679;SDS011;838;51.794;12.258;2023-05-10T10:03:17;3.47;;;3.00;;
1679;SDS011;838;51.794;12.258;2023-05-10T10:05:44;4.80;;;3.97;;
1679;SDS011;838;51.794;12.258;2023-05-10T10:08:23;4.00;;;3.30;;
1679;SDS011;838;51.794;12.258;2023-05-10T10:10:53;4.23;;;3.23;;
1679;SDS011;838;51.794;12.258;2023-05-10T10:13:24;3.67;;;3.20;;
1679;SDS011;838;51.794;12.258;2023-05-10T10:15:51;5.33;;;3.53;;
1679;SDS011;838;51.794;12.258;2023-05-10T10:18:22;4.23;;;3.13;;
1679;SDS011;838;51.794;12.258;2023-05-10T10:20:52;4.30;;;3.07;;
1679;SDS011;838;51.794;12.258;2023-05-10T10:23:38;4.97;;;3.80;;
1679;SDS011;838;51.794;12.258;2023-05-10T10:26:09;4.80;;;3.50;;
1679;SDS011;838;51.794;12.258;2023-05-10T10:28:43;4.73;;;3.20;;
1679;SDS011;838;51.794;12.258;2023-05-10T10:34:28;4.70;;;3.50;;
1679;SDS011;838;51.794;12.258;2023-05-10T10:37:04;5.07;;;3.67;;
1679;SDS011;838;51.794;12.258;2023-05-10T10:39:36;5.13;;;3.50;;
1679;SDS011;838;51.794;12.258;2023-05-10T10:42:05;5.03;;;3.97;;
1679;SDS011;838;51.794;12.258;2023-05-10T10:49:52;5.00;;;3.67;;
1679;SDS011;838;51.794;12.258;2023-05-10T10:52:28;4.50;;;3.57;;
1679;SDS011;838;51.794;12.258;2023-05-10T10:55:02;5.57;;;4.73;;
1679;SDS011;838;51.794;12.258;2023-05-10T10:57:31;5.27;;;4.50;;
1679;SDS011;838;51.794;12.258;2023-05-10T11:02:50;4.70;;;4.20;;
1679;SDS011;838;51.794;12.258;2023-05-10T11:07:57;7.53;;;4.67;;
1679;SDS011;838;51.794;12.258;2023-05-10T11:10:24;4.53;;;4.10;;
1679;SDS011;838;51.794;12.258;2023-05-10T11:12:52;5.20;;;4.30;;
1679;SDS011;838;51.794;12.258;2023-05-10T11:15:19;8.10;;;5.13;;
1679;SDS011;838;51.794;12.258;2023-05-10T11:17:47;7.33;;;5.50;;
1679;SDS011;838;51.794;12.258;2023-05-10T11:20:17;5.97;;;5.20;;
1679;SDS011;838;51.794;12.258;2023-05-10T11:25:28;8.73;;;5.80;;
1679;SDS011;838;51.794;12.258;2023-05-10T11:27:54;6.90;;;5.63;;
1679;SDS011;838;51.794;12.258;2023-05-10T11:30:22;8.07;;;5.70;;
1679;SDS011;838;51.794;12.258;2023-05-10T11:32:49;7.27;;;5.73;;
1679;SDS011;838;51.794;12.258;2023-05-10T11:35:15;7.33;;;6.53;;
1679;SDS011;838;51.794;12.258;2023-05-10T11:37:41;9.57;;;7.47;;
1679;SDS011;838;51.794;12.258;2023-05-10T11:40:08;10.20;;;8.23;;
1679;SDS011;838;51.794;12.258;2023-05-10T11:42:38;9.17;;;8.17;;
1679;SDS011;838;51.794;12.258;2023-05-10T11:45:04;8.80;;;7.90;;
1679;SDS011;838;51.794;12.258;2023-05-10T11:47:31;10.67;;;8.63;;
1679;SDS011;838;51.794;12.258;2023-05-10T11:49:57;11.10;;;9.27;;
1679;SDS011;838;51.794;12.258;2023-05-10T11:52:23;10.43;;;9.33;;
1679;SDS011;838;51.794;12.258;2023-05-10T11:54:57;10.20;;;9.10;;
1679;SDS011;838;51.794;12.258;2023-05-10T11:57:25;13.73;;;9.33;;
1679;SDS011;838;51.794;12.258;2023-05-10T11:59:53;10.47;;;8.70;;
1679;SDS011;838;51.794;12.258;2023-05-10T12:02:20;10.50;;;8.27;;
1679;SDS011;838;51.794;12.258;2023-05-10T12:04:46;9.97;;;8.97;;
1679;SDS011;838;51.794;12.258;2023-05-10T12:07:21;9.40;;;8.40;;
1679;SDS011;838;51.794;12.258;2023-05-10T12:12:52;9.60;;;8.60;;
1679;SDS011;838;51.794;12.258;2023-05-10T12:15:24;10.90;;;9.33;;
1679;SDS011;838;51.794;12.258;2023-05-10T12:17:50;11.47;;;10.20;;
1679;SDS011;838;51.794;12.258;2023-05-10T12:20:27;10.80;;;9.70;;
1679;SDS011;838;51.794;12.258;2023-05-10T12:22:54;10.90;;;9.43;;
1679;SDS011;838;51.794;12.258;2023-05-10T12:25:22;11.93;;;10.00;;
1679;SDS011;838;51.794;12.258;2023-05-10T12:27:50;18.40;;;15.03;;
1679;SDS011;838;51.794;12.258;2023-05-10T12:32:53;11.40;;;9.97;;
1679;SDS011;838;51.794;12.258;2023-05-10T12:35:24;10.93;;;9.83;;
1679;SDS011;838;51.794;12.258;2023-05-10T12:37:51;10.37;;;9.37;;
1679;SDS011;838;51.794;12.258;2023-05-10T12:40:16;10.37;;;9.37;;
1679;SDS011;838;51.794;12.258;2023-05-10T12:42:42;10.60;;;8.80;;
1679;SDS011;838;51.794;12.258;2023-05-10T12:45:11;10.43;;;9.27;;
1679;SDS011;838;51.794;12.258;2023-05-10T12:47:37;9.83;;;8.60;;
1679;SDS011;838;51.794;12.258;2023-05-10T12:50:04;10.50;;;9.00;;
1679;SDS011;838;51.794;12.258;2023-05-10T12:52:30;10.90;;;9.10;;
1679;SDS011;838;51.794;12.258;2023-05-10T12:54:57;10.03;;;9.03;;
1679;SDS011;838;51.794;12.258;2023-05-10T12:57:23;10.20;;;9.20;;
1679;SDS011;838;51.794;12.258;2023-05-10T12:59:50;9.50;;;8.50;;
1679;SDS011;838;51.794;12.258;2023-05-10T13:02:16;9.10;;;8.20;;
1679;SDS011;838;51.794;12.258;2023-05-10T13:04:46;8.30;;;7.43;;
1679;SDS011;838;51.794;12.258;2023-05-10T13:07:12;8.40;;;7.47;;
1679;SDS011;838;51.794;12.258;2023-05-10T13:09:39;10.20;;;8.57;;
1679;SDS011;838;51.794;12.258;2023-05-10T13:12:05;9.83;;;8.80;;
1679;SDS011;838;51.794;12.258;2023-05-10T13:14:30;8.50;;;7.60;;
1679;SDS011;838;51.794;12.258;2023-05-10T13:16:56;9.87;;;8.03;;
1679;SDS011;838;51.794;12.258;2023-05-10T13:19:23;9.70;;;8.13;;
1679;SDS011;838;51.794;12.258;2023-05-10T13:21:48;9.70;;;8.70;;
1679;SDS011;838;51.794;12.258;2023-05-10T13:24:14;9.07;;;8.10;;
1679;SDS011;838;51.794;12.258;2023-05-10T13:26:40;9.90;;;7.90;;
1679;SDS011;838;51.794;12.258;2023-05-10T13:29:06;10.47;;;9.00;;
1679;SDS011;838;51.794;12.258;2023-05-10T13:31:33;10.27;;;8.37;;
1679;SDS011;838;51.794;12.258;2023-05-10T13:33:59;9.80;;;8.30;;
1679;SDS011;838;51.794;12.258;2023-05-10T13:36:25;10.17;;;9.17;;
1679;SDS011;838;51.794;12.258;2023-05-10T13:38:51;11.30;;;9.47;;
1679;SDS011;838;51.794;12.258;2023-05-10T13:41:17;9.93;;;8.90;;
1679;SDS011;838;51.794;12.258;2023-05-10T13:43:43;10.50;;;9.47;;
1679;SDS011;838;51.794;12.258;2023-05-10T13:46:12;10.20;;;9.00;;
1679;SDS011;838;51.794;12.258;2023-05-10T13:48:38;11.30;;;10.10;;
1679;SDS011;838;51.794;12.258;2023-05-10T13:51:04;11.60;;;9.63;;
1679;SDS011;838;51.794;12.258;2023-05-10T13:53:32;11.10;;;10.00;;
1679;SDS011;838;51.794;12.258;2023-05-10T13:55:58;11.53;;;10.33;;
1679;SDS011;838;51.794;12.258;2023-05-10T13:58:24;12.00;;;10.90;;
1679;SDS011;838;51.794;12.258;2023-05-10T14:00:49;11.70;;;10.50;;
1679;SDS011;838;51.794;12.258;2023-05-10T14:03:15;10.70;;;9.70;;
1679;SDS011;838;51.794;12.258;2023-05-10T14:05:45;11.70;;;10.50;;
1679;SDS011;838;51.794;12.258;2023-05-10T14:08:14;11.00;;;10.00;;
1679;SDS011;838;51.794;12.258;2023-05-10T14:10:40;11.13;;;10.07;;
1679;SDS011;838;51.794;12.258;2023-05-10T14:13:06;11.43;;;10.40;;
1679;SDS011;838;51.794;12.258;2023-05-10T14:15:32;12.07;;;10.83;;
1679;SDS011;838;51.794;12.258;2023-05-10T14:17:58;10.50;;;9.43;;
1679;SDS011;838;51.794;12.258;2023-05-10T14:20:27;10.47;;;9.33;;
1679;SDS011;838;51.794;12.258;2023-05-10T14:22:52;10.47;;;9.47;;
1679;SDS011;838;51.794;12.258;2023-05-10T14:25:30;11.03;;;9.93;;
1679;SDS011;838;51.794;12.258;2023-05-10T14:27:57;11.47;;;10.37;;
1679;SDS011;838;51.794;12.258;2023-05-10T14:30:23;9.83;;;8.83;;
1679;SDS011;838;51.794;12.258;2023-05-10T14:32:49;10.63;;;9.50;;
1679;SDS011;838;51.794;12.258;2023-05-10T14:35:15;10.97;;;9.87;;
1679;SDS011;838;51.794;12.258;2023-05-10T14:37:40;9.53;;;8.63;;
1679;SDS011;838;51.794;12.258;2023-05-10T14:40:07;10.43;;;9.33;;
1679;SDS011;838;51.794;12.258;2023-05-10T14:42:34;12.00;;;10.07;;
1679;SDS011;838;51.794;12.258;2023-05-10T14:44:59;10.33;;;9.33;;
1679;SDS011;838;51.794;12.258;2023-05-10T14:47:25;11.47;;;10.30;;
1679;SDS011;838;51.794;12.258;2023-05-10T14:49:51;9.50;;;8.60;;
1679;SDS011;838;51.794;12.258;2023-05-10T14:52:17;10.10;;;9.10;;
1679;SDS011;838;51.794;12.258;2023-05-10T14:54:42;9.90;;;8.90;;
1679;SDS011;838;51.794;12.258;2023-05-10T14:57:08;9.97;;;8.97;;
1679;SDS011;838;51.794;12.258;2023-05-10T14:59:34;11.00;;;9.90;;
1679;SDS011;838;51.794;12.258;2023-05-10T15:02:00;11.37;;;10.17;;
1679;SDS011;838;51.794;12.258;2023-05-10T15:04:26;10.53;;;9.53;;
1679;SDS011;838;51.794;12.258;2023-05-10T15:06:52;12.43;;;9.70;;
1679;SDS011;838;51.794;12.258;2023-05-10T15:09:24;10.23;;;9.23;;
1679;SDS011;838;51.794;12.258;2023-05-10T15:11:50;10.37;;;8.97;;
1679;SDS011;838;51.794;12.258;2023-05-10T15:14:16;9.57;;;8.53;;
1679;SDS011;838;51.794;12.258;2023-05-10T15:16:42;10.33;;;9.30;;
1679;SDS011;838;51.794;12.258;2023-05-10T15:19:08;10.43;;;9.43;;
1679;SDS011;838;51.794;12.258;2023-05-10T15:21:33;10.43;;;9.43;;
1679;SDS011;838;51.794;12.258;2023-05-10T15:24:06;10.40;;;9.40;;
1679;SDS011;838;51.794;12.258;2023-05-10T15:26:32;10.20;;;9.10;;
1679;SDS011;838;51.794;12.258;2023-05-10T15:28:59;10.57;;;9.20;;
1679;SDS011;838;51.794;12.258;2023-05-10T15:31:25;10.70;;;9.60;;
1679;SDS011;838;51.794;12.258;2023-05-10T15:33:52;11.97;;;10.00;;
1679;SDS011;838;51.794;12.258;2023-05-10T15:36:24;11.17;;;10.07;;
1679;SDS011;838;51.794;12.258;2023-05-10T15:38:49;10.93;;;9.83;;
1679;SDS011;838;51.794;12.258;2023-05-10T15:41:15;10.83;;;9.60;;
1679;SDS011;838;51.794;12.258;2023-05-10T15:43:42;10.83;;;9.80;;
1679;SDS011;838;51.794;12.258;2023-05-10T15:46:08;11.03;;;9.53;;
1679;SDS011;838;51.794;12.258;2023-05-10T15:48:33;14.20;;;10.33;;
1679;SDS011;838;51.794;12.258;2023-05-10T15:50:59;11.13;;;10.03;;
1679;SDS011;838;51.794;12.258;2023-05-10T15:53:25;10.70;;;9.60;;
1679;SDS011;838;51.794;12.258;2023-05-10T15:55:51;9.00;;;8.10;;
1679;SDS011;838;51.794;12.258;2023-05-10T15:58:17;9.40;;;8.47;;
1679;SDS011;838;51.794;12.258;2023-05-10T16:00:43;9.37;;;8.47;;